Time;durP1;ratioP1;P1;durP2;ratioP2;P2;SDS_P1;SDS_P2;PMS_P1;PMS_P2;Temp;Humidity;BMP_temperature;BMP_pressure;BME280_temperature;BME280_humidity;BME280_pressure;Samples;Min_cycle;Max_cycle;Signal;HPM_P1;HPM_P2
2022/12/10 00:01:08;;;;;;;52.10;46.50;;;;;;;-141.22;100.00;65034.22;5032831;28;20443;-51
2022/12/10 00:03:36;;;;;;;49.93;44.67;;;;;;;-141.22;100.00;65034.22;5032357;28;20472;-48
2022/12/10 00:06:06;;;;;;;50.57;45.67;;;;;;;-141.22;100.00;65034.22;5032031;28;20460;-47
2022/12/10 00:08:35;;;;;;;47.10;42.07;;;;;;;-141.22;100.00;65034.22;5032844;28;20781;-46
2022/12/10 00:11:04;;;;;;;49.20;44.40;;;;;;;-141.22;100.00;65034.22;5032840;28;20428;-51
2022/12/10 00:13:32;;;;;;;47.27;42.33;;;;;;;-141.22;100.00;65034.22;5032615;28;20936;-47
2022/12/10 00:16:01;;;;;;;48.30;42.20;;;;;;;-141.22;100.00;65034.22;5032001;28;20851;-50
2022/12/10 00:18:30;;;;;;;52.63;46.97;;;;;;;-141.22;100.00;65034.22;5032408;28;20432;-46
2022/12/10 00:20:57;;;;;;;46.63;41.80;;;;;;;-141.22;100.00;65034.22;5032557;28;20442;-50
2022/12/10 00:23:25;;;;;;;49.17;43.93;;;;;;;-141.22;100.00;65034.22;5031609;28;20476;-51
2022/12/10 00:25:53;;;;;;;47.97;42.70;;;;;;;-141.22;100.00;65034.22;5031809;28;21040;-50
2022/12/10 00:28:20;;;;;;;51.80;44.80;;;;;;;-141.22;100.00;65034.22;5032603;28;20452;-49
2022/12/10 00:30:48;;;;;;;48.63;43.57;;;;;;;-141.22;100.00;65034.22;5032227;28;20432;-47
2022/12/10 00:33:17;;;;;;;47.87;42.83;;;;;;;-141.22;100.00;65034.22;5032159;28;20428;-48
2022/12/10 00:35:44;;;;;;;52.27;45.63;;;;;;;-141.22;100.00;65034.22;5031627;28;20459;-48
2022/12/10 00:38:12;;;;;;;48.77;43.50;;;;;;;-141.22;100.00;65034.22;5032142;28;20448;-49
2022/12/10 00:40:40;;;;;;;48.30;43.03;;;;;;;-141.22;100.00;65034.22;5032115;28;20444;-49
2022/12/10 00:43:07;;;;;;;46.53;41.83;;;;;;;-141.22;100.00;65034.22;5031831;28;20478;-48
2022/12/10 00:45:35;;;;;;;46.57;41.50;;;;;;;-141.22;100.00;65034.22;5031669;28;20539;-46
2022/12/10 00:48:02;;;;;;;50.50;43.43;;;;;;;-141.22;100.00;65034.22;5031839;28;20452;-49
2022/12/10 00:50:31;;;;;;;46.93;42.37;;;;;;;-141.22;100.00;65034.22;5032122;28;20534;-47
2022/12/10 00:52:59;;;;;;;46.20;41.37;;;;;;;-141.22;100.00;65034.22;5031970;28;20539;-48
2022/12/10 00:55:27;;;;;;;54.37;45.80;;;;;;;-141.22;100.00;65034.22;5031200;28;20467;-47
2022/12/10 00:57:54;;;;;;;48.07;42.97;;;;;;;-141.22;100.00;65034.22;5023761;28;20455;-46
2022/12/10 01:00:22;;;;;;;49.77;43.47;;;;;;;-141.22;100.00;65034.22;5031985;28;20930;-49
2022/12/10 01:02:49;;;;;;;50.17;44.90;;;;;;;-141.22;100.00;65034.22;5031765;28;20428;-48
2022/12/10 01:05:17;;;;;;;57.23;45.33;;;;;;;-141.22;100.00;65034.22;5031092;28;20439;-46
2022/12/10 01:07:46;;;;;;;49.33;44.13;;;;;;;-141.22;100.00;65034.22;5031604;28;20448;-46
2022/12/10 01:10:14;;;;;;;48.93;43.73;;;;;;;-141.22;100.00;65034.22;5031543;28;20903;-50
2022/12/10 01:12:42;;;;;;;48.90;43.60;;;;;;;-141.22;100.00;65034.22;5031563;28;20436;-46
2022/12/10 01:15:09;;;;;;;50.93;43.53;;;;;;;-141.22;100.00;65034.22;5031093;28;20428;-46
2022/12/10 01:17:37;;;;;;;48.53;43.80;;;;;;;-141.22;100.00;65034.22;5031538;28;20463;-46
2022/12/10 01:20:06;;;;;;;49.03;44.10;;;;;;;-141.22;100.00;65034.22;5031549;28;20428;-47
2022/12/10 01:22:34;;;;;;;48.37;43.33;;;;;;;-141.22;100.00;65034.22;5031695;28;20432;-49
2022/12/10 01:25:03;;;;;;;50.23;44.87;;;;;;;-141.22;100.00;65034.22;5030576;28;20559;-46
2022/12/10 01:27:31;;;;;;;52.17;46.70;;;;;;;-141.22;100.00;65034.22;5031700;28;20547;-46
2022/12/10 01:29:59;;;;;;;46.73;42.20;;;;;;;-141.22;100.00;65034.22;5031580;28;20432;-48
2022/12/10 01:32:26;;;;;;;48.07;42.83;;;;;;;-141.22;100.00;65034.22;5031433;28;20440;-50
2022/12/10 01:34:54;;;;;;;52.03;46.43;;;;;;;-141.22;100.00;65034.22;5032791;28;20424;-50
2022/12/10 01:37:21;;;;;;;48.23;43.53;;;;;;;-141.22;100.00;65034.22;5034955;28;20470;-46
2022/12/10 01:39:49;;;;;;;49.73;44.07;;;;;;;-141.22;100.00;65034.22;5035419;28;20945;-48
2022/12/10 01:42:18;;;;;;;49.00;43.80;;;;;;;-141.22;100.00;65034.22;5035550;28;20443;-51
2022/12/10 01:45:01;;;;;;;47.07;42.17;;;;;;;-141.22;100.00;65034.22;5035087;28;20471;-46
2022/12/10 01:47:29;;;;;;;47.97;43.10;;;;;;;-141.22;100.00;65034.22;5023113;28;20550;-52
2022/12/10 01:49:58;;;;;;;48.73;43.63;;;;;;;-141.22;100.00;65034.22;5035150;28;20442;-46
2022/12/10 01:52:26;;;;;;;45.63;40.90;;;;;;;-141.22;100.00;65034.22;5035370;28;20424;-51
2022/12/10 01:54:53;;;;;;;47.17;42.37;;;;;;;-141.22;100.00;65034.22;5034886;28;20782;-47
2022/12/10 01:57:25;;;;;;;49.17;44.03;;;;;;;-141.22;100.00;65034.22;5026235;28;20468;-46
2022/12/10 01:59:56;;;;;;;49.37;44.70;;;;;;;-141.22;100.00;65034.22;5035165;28;20435;-49
2022/12/10 02:02:32;;;;;;;51.43;44.03;;;;;;;-141.22;100.00;65034.22;5034908;28;20435;-47
2022/12/10 02:05:13;;;;;;;44.70;40.00;;;;;;;-141.22;100.00;65034.22;5034915;28;21000;-48
2022/12/10 02:07:53;;;;;;;46.60;41.70;;;;;;;-141.22;100.00;65034.22;5034900;28;20459;-46
2022/12/10 02:10:32;;;;;;;45.23;40.73;;;;;;;-141.22;100.00;65034.22;5034950;28;20443;-46
2022/12/10 02:13:07;;;;;;;47.33;42.20;;;;;;;-141.22;100.00;65034.22;5034667;28;20436;-47
2022/12/10 02:15:37;;;;;;;45.93;41.00;;;;;;;-141.22;100.00;65034.22;5034274;28;20984;-46
2022/12/10 02:18:10;;;;;;;45.83;41.00;;;;;;;-141.22;100.00;65034.22;5034507;28;20460;-48
2022/12/10 02:20:42;;;;;;;46.37;41.80;;;;;;;-141.22;100.00;65034.22;5034655;28;20436;-49
2022/12/10 02:23:13;;;;;;;46.67;42.20;;;;;;;-141.22;100.00;65034.22;5034385;28;20519;-49
2022/12/10 02:25:47;;;;;;;46.53;41.80;;;;;;;-141.22;100.00;65034.22;5033994;28;20964;-49
2022/12/10 02:28:23;;;;;;;42.20;38.17;;;;;;;-141.22;100.00;65034.22;5034617;28;20443;-46
2022/12/10 02:30:54;;;;;;;43.60;39.07;;;;;;;-141.22;100.00;65034.22;5034500;28;20948;-46
2022/12/10 02:33:25;;;;;;;43.50;39.53;;;;;;;-141.22;100.00;65034.22;5034274;28;20440;-48
2022/12/10 02:35:54;;;;;;;44.27;39.87;;;;;;;-141.22;100.00;65034.22;5033924;28;20463;-46
2022/12/10 02:38:27;;;;;;;45.87;39.03;;;;;;;-141.22;100.00;65034.22;5034491;28;20432;-49
2022/12/10 02:41:00;;;;;;;39.50;35.87;;;;;;;-141.22;100.00;65034.22;5034295;28;20941;-46
2022/12/10 02:43:30;;;;;;;41.90;37.80;;;;;;;-141.22;100.00;65034.22;5034027;28;21126;-46
2022/12/10 02:46:03;;;;;;;43.73;39.60;;;;;;;-141.22;100.00;65034.22;5033029;28;20464;-49
2022/12/10 02:48:32;;;;;;;43.20;38.87;;;;;;;-141.22;100.00;65034.22;5034381;28;20443;-46
2022/12/10 02:51:00;;;;;;;40.60;37.07;;;;;;;-141.22;100.00;65034.22;5034286;28;20949;-46
2022/12/10 02:53:28;;;;;;;43.10;39.07;;;;;;;-141.22;100.00;65034.22;5033990;28;20531;-47
2022/12/10 02:56:09;;;;;;;44.60;40.00;;;;;;;-141.22;100.00;65034.22;5032357;28;20456;-48
2022/12/10 02:58:46;;;;;;;42.90;38.63;;;;;;;-141.22;100.00;65034.22;5029017;28;21103;-49
2022/12/10 03:01:26;;;;;;;45.77;41.30;;;;;;;-141.22;100.00;65034.22;5034063;28;20441;-46
2022/12/10 03:04:00;;;;;;;40.80;36.80;;;;;;;-141.22;100.00;65034.22;5033719;28;20478;-46
2022/12/10 03:06:35;;;;;;;40.90;37.20;;;;;;;-141.22;100.00;65034.22;5033315;28;20456;-47
2022/12/10 03:09:08;;;;;;;41.17;37.27;;;;;;;-141.22;100.00;65034.22;5033662;28;20438;-49
2022/12/10 03:11:36;;;;;;;39.17;35.70;;;;;;;-141.22;100.00;65034.22;5031083;28;20447;-46
2022/12/10 03:14:10;;;;;;;42.60;38.47;;;;;;;-141.22;100.00;65034.22;5023258;28;20545;-46
2022/12/10 03:16:46;;;;;;;38.97;35.63;;;;;;;-141.22;100.00;65034.22;5013150;28;20472;-49
2022/12/10 03:19:17;;;;;;;40.93;37.20;;;;;;;-141.22;100.00;65034.22;5013919;28;20425;-46
2022/12/10 03:21:48;;;;;;;40.67;36.83;;;;;;;-141.22;100.00;65034.22;5013752;28;20441;-46
2022/12/10 03:24:17;;;;;;;42.60;38.60;;;;;;;-141.22;100.00;65034.22;5013625;28;20425;-48
2022/12/10 03:26:49;;;;;;;40.90;37.27;;;;;;;-141.22;100.00;65034.22;5013170;28;20477;-46
2022/12/10 03:29:21;;;;;;;43.97;39.77;;;;;;;-141.22;100.00;65034.22;5013617;28;20425;-46
2022/12/10 03:31:53;;;;;;;43.93;39.33;;;;;;;-141.22;100.00;65034.22;5013683;28;20810;-48
2022/12/10 03:34:22;;;;;;;41.57;37.47;;;;;;;-141.22;100.00;65034.22;5013247;28;20929;-46
2022/12/10 03:36:51;;;;;;;45.53;41.07;;;;;;;-141.22;100.00;65034.22;5012862;28;21012;-49
2022/12/10 03:39:19;;;;;;;45.97;41.33;;;;;;;-141.22;100.00;65034.22;5013520;28;20832;-47
2022/12/10 03:41:47;;;;;;;46.27;41.63;;;;;;;-141.22;100.00;65034.22;5013463;28;20437;-49
2022/12/10 03:44:14;;;;;;;48.03;42.83;;;;;;;-141.22;100.00;65034.22;5013115;28;21245;-46
2022/12/10 03:46:42;;;;;;;47.63;42.63;;;;;;;-141.22;100.00;65034.22;5012638;28;20473;-50
2022/12/10 03:49:11;;;;;;;47.93;43.10;;;;;;;-141.22;100.00;65034.22;5013413;28;20425;-45
2022/12/10 03:51:39;;;;;;;48.33;42.93;;;;;;;-141.22;100.00;65034.22;5013355;28;20436;-46
2022/12/10 03:54:07;;;;;;;43.47;39.33;;;;;;;-141.22;100.00;65034.22;5012871;28;20437;-46
2022/12/10 03:56:34;;;;;;;47.33;42.43;;;;;;;-141.22;100.00;65034.22;5028635;28;21003;-48
2022/12/10 03:59:02;;;;;;;53.07;42.67;;;;;;;-141.22;100.00;65034.22;5013430;28;20439;-48
2022/12/10 04:01:30;;;;;;;48.43;43.17;;;;;;;-141.22;100.00;65034.22;5013286;28;20433;-46
2022/12/10 04:03:57;;;;;;;47.20;42.10;;;;;;;-141.22;100.00;65034.22;5012951;28;20460;-47
2022/12/10 04:06:27;;;;;;;46.27;41.53;;;;;;;-141.22;100.00;65034.22;5012423;28;20469;-47
2022/12/10 04:08:54;;;;;;;46.43;41.50;;;;;;;-141.22;100.00;65034.22;5012978;28;20429;-48
2022/12/10 04:11:26;;;;;;;46.13;41.10;;;;;;;-141.22;100.00;65034.22;5012894;28;20473;-47
2022/12/10 04:16:39;;;;;;;47.80;42.83;;;;;;;-141.22;100.00;65034.22;5012172;28;20476;-47
2022/12/10 04:19:09;;;;;;;44.47;40.17;;;;;;;-141.22;100.00;65034.22;5037230;23;20437;-47
2022/12/10 04:27:19;;;;;;;46.40;41.60;;;;;;;-141.22;100.00;65034.22;5032323;28;20494;-50
2022/12/10 04:29:47;;;;;;;47.83;42.90;;;;;;;-141.22;100.00;65034.22;5032794;28;20547;-48
2022/12/10 04:32:16;;;;;;;46.87;42.20;;;;;;;-141.22;100.00;65034.22;5032723;28;20436;-50
2022/12/10 04:34:43;;;;;;;49.20;44.20;;;;;;;-141.22;100.00;65034.22;5032288;28;20947;-47
2022/12/10 04:37:13;;;;;;;46.60;41.73;;;;;;;-141.22;100.00;65034.22;5031919;28;20467;-48
2022/12/10 04:39:41;;;;;;;47.30;42.63;;;;;;;-141.22;100.00;65034.22;5032575;28;20459;-51
2022/12/10 04:42:09;;;;;;;48.93;43.43;;;;;;;-141.22;100.00;65034.22;5032479;28;20440;-49
2022/12/10 04:44:37;;;;;;;47.00;42.07;;;;;;;-141.22;100.00;65034.22;5032201;28;20436;-49
2022/12/10 04:47:06;;;;;;;48.20;43.00;;;;;;;-141.22;100.00;65034.22;5031703;28;20467;-48
2022/12/10 04:49:34;;;;;;;48.40;43.20;;;;;;;-141.22;100.00;65034.22;5032514;28;20452;-48
2022/12/10 04:52:03;;;;;;;49.17;43.97;;;;;;;-141.22;100.00;65034.22;5032439;28;20443;-50
2022/12/10 04:54:33;;;;;;;51.43;44.67;;;;;;;-141.22;100.00;65034.22;5032231;28;20438;-49
2022/12/10 04:57:06;;;;;;;50.73;45.43;;;;;;;-141.22;100.00;65034.22;5022479;28;20535;-48
2022/12/10 04:59:34;;;;;;;49.30;44.30;;;;;;;-141.22;100.00;65034.22;5031842;28;20528;-48
2022/12/10 05:02:01;;;;;;;49.43;44.13;;;;;;;-141.22;100.00;65034.22;5032420;28;20813;-48
2022/12/10 05:04:29;;;;;;;49.40;44.50;;;;;;;-141.22;100.00;65034.22;5032014;28;20436;-52
2022/12/10 05:06:57;;;;;;;52.00;46.60;;;;;;;-141.22;100.00;65034.22;5031566;28;20533;-51
2022/12/10 05:09:24;;;;;;;48.80;43.67;;;;;;;-141.22;100.00;65034.22;5031674;28;20448;-50
2022/12/10 05:11:53;;;;;;;55.23;46.83;;;;;;;-141.22;100.00;65034.22;5031946;28;20435;-54
2022/12/10 05:14:21;;;;;;;54.23;47.07;;;;;;;-141.22;100.00;65034.22;5032064;28;20450;-48
2022/12/10 05:16:51;;;;;;;50.27;45.23;;;;;;;-141.22;100.00;65034.22;5031482;28;20467;-50
2022/12/10 05:19:21;;;;;;;52.10;46.50;;;;;;;-141.22;100.00;65034.22;5031897;28;20432;-50
2022/12/10 05:24:34;;;;;;;49.43;44.50;;;;;;;-141.22;100.00;65034.22;5031746;28;20439;-50
2022/12/10 05:27:04;;;;;;;49.40;44.40;;;;;;;-141.22;100.00;65034.22;5031406;28;20464;-47
2022/12/10 05:29:33;;;;;;;55.03;47.13;;;;;;;-141.22;100.00;65034.22;5031940;28;20456;-47
2022/12/10 05:32:00;;;;;;;56.73;45.70;;;;;;;-141.22;100.00;65034.22;5032064;28;20436;-50
2022/12/10 05:34:28;;;;;;;53.40;47.80;;;;;;;-141.22;100.00;65034.22;5031625;28;20778;-51
2022/12/10 05:36:56;;;;;;;51.20;45.93;;;;;;;-141.22;100.00;65034.22;5031221;28;20470;-48
2022/12/10 05:39:23;;;;;;;50.87;45.73;;;;;;;-141.22;100.00;65034.22;5031998;28;20436;-49
2022/12/10 05:41:51;;;;;;;51.90;46.37;;;;;;;-141.22;100.00;65034.22;5031876;28;20440;-51
2022/12/10 05:44:20;;;;;;;55.63;46.97;;;;;;;-141.22;100.00;65034.22;5031966;28;20463;-51
2022/12/10 05:46:47;;;;;;;50.17;45.03;;;;;;;-141.22;100.00;65034.22;5031521;28;20476;-47
2022/12/10 05:49:15;;;;;;;51.43;45.53;;;;;;;-141.22;100.00;65034.22;5031828;28;20801;-48
2022/12/10 05:51:43;;;;;;;50.87;45.23;;;;;;;-141.22;100.00;65034.22;5031875;28;20440;-49
2022/12/10 05:54:10;;;;;;;52.07;46.67;;;;;;;-141.22;100.00;65034.22;5031718;28;20432;-47
2022/12/10 05:56:38;;;;;;;52.63;46.93;;;;;;;-141.22;100.00;65034.22;5030657;28;21011;-53
2022/12/10 05:59:07;;;;;;;53.03;47.53;;;;;;;-141.22;100.00;65034.22;5031571;28;20458;-50
2022/12/10 06:01:44;;;;;;;50.97;45.87;;;;;;;-141.22;100.00;65034.22;5031624;28;20454;-52
2022/12/10 06:04:12;;;;;;;48.87;44.07;;;;;;;-141.22;100.00;65034.22;5031199;28;20439;-55
2022/12/10 06:06:41;;;;;;;55.97;48.60;;;;;;;-141.22;100.00;65034.22;5031084;28;20550;-51
2022/12/10 06:09:12;;;;;;;52.70;46.97;;;;;;;-141.22;100.00;65034.22;5031409;28;20427;-52
2022/12/10 06:11:41;;;;;;;48.10;43.10;;;;;;;-141.22;100.00;65034.22;5031603;28;20462;-48
2022/12/10 06:14:09;;;;;;;51.20;45.37;;;;;;;-141.22;100.00;65034.22;5031234;28;20951;-52
2022/12/10 06:16:37;;;;;;;48.40;43.47;;;;;;;-141.22;100.00;65034.22;5030980;28;20455;-47
2022/12/10 06:19:06;;;;;;;46.27;41.57;;;;;;;-141.22;100.00;65034.22;5031473;28;20432;-52
2022/12/10 06:21:34;;;;;;;47.17;42.17;;;;;;;-141.22;100.00;65034.22;5032318;28;20440;-49
2022/12/10 06:24:02;;;;;;;42.80;38.90;;;;;;;-141.22;100.00;65034.22;5034839;28;20436;-54
2022/12/10 06:26:29;;;;;;;46.50;41.90;;;;;;;-141.22;100.00;65034.22;5034470;28;21009;-48
2022/12/10 06:28:57;;;;;;;45.27;41.07;;;;;;;-141.22;100.00;65034.22;5034987;28;20475;-50
2022/12/10 06:31:25;;;;;;;46.67;41.90;;;;;;;-141.22;100.00;65034.22;5034965;28;20460;-47
2022/12/10 06:33:53;;;;;;;47.33;42.50;;;;;;;-141.22;100.00;65034.22;5034865;28;20805;-53
2022/12/10 06:36:22;;;;;;;46.50;41.90;;;;;;;-141.22;100.00;65034.22;5034424;28;20460;-50
2022/12/10 06:38:50;;;;;;;44.23;39.80;;;;;;;-141.22;100.00;65034.22;5034876;28;20591;-48
2022/12/10 06:41:20;;;;;;;47.20;42.37;;;;;;;-141.22;100.00;65034.22;5034507;28;20456;-49
2022/12/10 06:43:47;;;;;;;43.53;39.50;;;;;;;-141.22;100.00;65034.22;5034584;28;20519;-47
2022/12/10 06:46:18;;;;;;;45.87;41.60;;;;;;;-141.22;100.00;65034.22;5034161;28;20475;-49
2022/12/10 06:48:46;;;;;;;48.13;43.60;;;;;;;-141.22;100.00;65034.22;5034976;28;20408;-49
2022/12/10 06:51:14;;;;;;;47.63;43.07;;;;;;;-141.22;100.00;65034.22;5034359;28;20452;-51
2022/12/10 06:53:44;;;;;;;46.73;42.17;;;;;;;-141.22;100.00;65034.22;5034440;28;20428;-47
2022/12/10 06:56:14;;;;;;;46.80;42.20;;;;;;;-141.22;100.00;65034.22;5033605;28;20456;-47
2022/12/10 06:58:43;;;;;;;47.80;42.83;;;;;;;-141.22;100.00;65034.22;5033716;28;20425;-53
2022/12/10 07:01:14;;;;;;;49.53;43.67;;;;;;;-141.22;100.00;65034.22;5034135;28;20452;-48
2022/12/10 07:03:43;;;;;;;50.93;44.07;;;;;;;-141.22;100.00;65034.22;5034234;28;20438;-49
2022/12/10 07:06:12;;;;;;;48.57;43.73;;;;;;;-141.22;100.00;65034.22;5033705;28;20486;-50
2022/12/10 07:08:40;;;;;;;45.00;40.50;;;;;;;-141.22;100.00;65034.22;5034260;28;20439;-50
2022/12/10 07:11:11;;;;;;;52.20;43.53;;;;;;;-141.22;100.00;65034.22;5034121;28;20456;-51
2022/12/10 07:13:39;;;;;;;49.27;44.30;;;;;;;-141.22;100.00;65034.22;5033588;28;20425;-48
2022/12/10 07:16:13;;;;;;;51.97;43.90;;;;;;;-141.22;100.00;65034.22;5033696;28;20483;-50
2022/12/10 07:18:41;;;;;;;50.57;44.70;;;;;;;-141.22;100.00;65034.22;5034034;28;20425;-48
2022/12/10 07:21:15;;;;;;;51.50;45.90;;;;;;;-141.22;100.00;65034.22;5031593;28;20555;-50
2022/12/10 07:23:43;;;;;;;48.60;43.57;;;;;;;-141.22;100.00;65034.22;5033602;28;20439;-49
2022/12/10 07:26:12;;;;;;;49.70;44.00;;;;;;;-141.22;100.00;65034.22;5033334;28;20469;-49
2022/12/10 07:28:39;;;;;;;49.87;44.83;;;;;;;-141.22;100.00;65034.22;5033212;28;20429;-47
2022/12/10 07:31:19;;;;;;;54.10;48.60;;;;;;;-141.22;100.00;65034.22;5033597;28;20456;-48
2022/12/10 07:33:47;;;;;;;50.77;45.80;;;;;;;-141.22;100.00;65034.22;5032694;28;20428;-47
2022/12/10 07:36:15;;;;;;;48.50;43.43;;;;;;;-141.22;100.00;65034.22;5033202;28;20525;-49
2022/12/10 07:38:42;;;;;;;50.00;44.20;;;;;;;-141.22;100.00;65034.22;5033808;28;20424;-49
2022/12/10 07:41:14;;;;;;;49.13;43.90;;;;;;;-141.22;100.00;65034.22;5033123;28;21004;-50
2022/12/10 07:43:44;;;;;;;50.20;45.10;;;;;;;-141.22;100.00;65034.22;5032152;28;20519;-48
2022/12/10 07:46:13;;;;;;;45.90;41.13;;;;;;;-141.22;100.00;65034.22;5032562;28;20464;-51
2022/12/10 07:48:43;;;;;;;48.70;43.60;;;;;;;-141.22;100.00;65034.22;5033206;28;20439;-50
2022/12/10 07:51:11;;;;;;;47.40;43.00;;;;;;;-141.22;100.00;65034.22;5033152;28;20973;-50
2022/12/10 07:53:39;;;;;;;51.17;42.30;;;;;;;-141.22;100.00;65034.22;5032683;28;20432;-50
2022/12/10 07:56:07;;;;;;;48.23;43.13;;;;;;;-141.22;100.00;65034.22;5030647;28;20992;-47
2022/12/10 07:58:37;;;;;;;47.70;42.90;;;;;;;-141.22;100.00;65034.22;5032681;28;20459;-49
2022/12/10 08:01:08;;;;;;;48.23;43.10;;;;;;;-141.22;100.00;65034.22;5033118;28;20834;-53
2022/12/10 08:03:37;;;;;;;47.40;42.30;;;;;;;-141.22;100.00;65034.22;5032900;28;20432;-51
2022/12/10 08:06:06;;;;;;;49.70;44.63;;;;;;;-141.22;100.00;65034.22;5032402;28;20464;-48
2022/12/10 08:08:34;;;;;;;48.33;43.60;;;;;;;-141.22;100.00;65034.22;5032897;28;20482;-49
2022/12/10 08:11:03;;;;;;;44.23;39.60;;;;;;;-141.22;100.00;65034.22;5032339;28;20492;-51
2022/12/10 08:13:31;;;;;;;45.50;40.80;;;;;;;-141.22;100.00;65034.22;5032547;28;20433;-50
2022/12/10 08:16:03;;;;;;;46.13;41.57;;;;;;;-141.22;100.00;65034.22;5032430;28;20472;-51
2022/12/10 08:18:31;;;;;;;60.90;54.50;;;;;;;-141.22;100.00;65034.22;5033036;28;20851;-53
2022/12/10 08:20:59;;;;;;;50.63;45.03;;;;;;;-141.22;100.00;65034.22;5032807;28;20908;-51
2022/12/10 08:23:26;;;;;;;45.70;41.33;;;;;;;-141.22;100.00;65034.22;5032512;28;20436;-53
2022/12/10 08:25:54;;;;;;;47.83;40.40;;;;;;;-141.22;100.00;65034.22;5032020;28;20467;-51
2022/12/10 08:28:21;;;;;;;45.47;40.97;;;;;;;-141.22;100.00;65034.22;5032767;28;20482;-50
2022/12/10 08:30:50;;;;;;;46.70;41.80;;;;;;;-141.22;100.00;65034.22;5032416;28;20464;-52
2022/12/10 08:33:18;;;;;;;44.13;39.40;;;;;;;-141.22;100.00;65034.22;5032599;28;20443;-53
2022/12/10 08:35:46;;;;;;;43.80;39.60;;;;;;;-141.22;100.00;65034.22;5032156;28;20460;-52
2022/12/10 08:38:14;;;;;;;48.83;44.23;;;;;;;-141.22;100.00;65034.22;5032039;28;20428;-50
2022/12/10 08:40:42;;;;;;;44.30;40.10;;;;;;;-141.22;100.00;65034.22;5028807;28;20471;-51
2022/12/10 08:43:10;;;;;;;47.73;42.73;;;;;;;-141.22;100.00;65034.22;5029944;28;20460;-50
2022/12/10 08:45:37;;;;;;;43.40;39.20;;;;;;;-141.22;100.00;65034.22;5029920;28;20463;-52
2022/12/10 08:48:05;;;;;;;52.53;47.07;;;;;;;-141.22;100.00;65034.22;5031077;28;20472;-50
2022/12/10 08:50:34;;;;;;;50.87;45.83;;;;;;;-141.22;100.00;65034.22;5031844;28;20452;-52
2022/12/10 08:53:02;;;;;;;63.57;56.73;;;;;;;-141.22;100.00;65034.22;5031355;28;20443;-54
2022/12/10 08:55:30;;;;;;;58.20;51.77;;;;;;;-141.22;100.00;65034.22;5028838;28;20460;-50
2022/12/10 08:57:58;;;;;;;48.53;43.90;;;;;;;-141.22;100.00;65034.22;5032016;28;20442;-50
2022/12/10 09:00:26;;;;;;;46.83;42.20;;;;;;;-141.22;100.00;65034.22;5031671;28;20452;-51
2022/12/10 09:02:54;;;;;;;47.20;43.00;;;;;;;-141.22;100.00;65034.22;5031500;28;20432;-55
2022/12/10 09:05:21;;;;;;;48.30;43.30;;;;;;;-141.22;100.00;65034.22;5030076;28;20472;-52
2022/12/10 09:07:50;;;;;;;45.40;40.90;;;;;;;-141.22;100.00;65034.22;5030501;28;20474;-54
2022/12/10 09:10:18;;;;;;;49.53;44.63;;;;;;;-141.22;100.00;65034.22;5030949;28;20456;-49
2022/12/10 09:12:46;;;;;;;44.50;40.00;;;;;;;-141.22;100.00;65034.22;5030844;28;20450;-50
2022/12/10 09:15:13;;;;;;;48.53;43.53;;;;;;;-141.22;100.00;65034.22;5029446;28;20436;-51
2022/12/10 09:17:41;;;;;;;49.93;44.67;;;;;;;-141.22;100.00;65034.22;5031253;28;20432;-52
2022/12/10 09:20:09;;;;;;;47.83;42.93;;;;;;;-141.22;100.00;65034.22;5031149;28;20474;-48
2022/12/10 09:22:37;;;;;;;54.33;43.60;;;;;;;-141.22;100.00;65034.22;5031327;28;20439;-52
2022/12/10 09:25:09;;;;;;;57.53;51.57;;;;;;;-141.22;100.00;65034.22;5029977;28;20454;-50
2022/12/10 09:27:37;;;;;;;56.03;49.93;;;;;;;-141.22;100.00;65034.22;5031092;28;20467;-52
2022/12/10 09:32:04;;;;;;;71.00;61.53;;;;;;;0.82;100.00;101115.28;5088823;28;20548;-52
2022/12/10 09:34:32;;;;;;;56.30;50.37;;;;;;;0.80;100.00;101112.78;5072461;28;20433;-53
2022/12/10 09:36:59;;;;;;;51.67;46.60;;;;;;;0.80;100.00;101120.66;5050653;28;20802;-54
2022/12/10 09:39:27;;;;;;;49.97;45.20;;;;;;;0.79;100.00;101110.28;5045652;28;20543;-53
2022/12/10 09:42:17;;;;;;;53.77;46.40;;;;;;;0.80;100.00;101118.03;5028541;28;20444;-50
2022/12/10 09:44:55;;;;;;;56.10;48.60;;;;;;;0.80;100.00;101120.66;5027800;28;20898;-52
2022/12/10 09:47:32;;;;;;;55.27;48.77;;;;;;;0.80;100.00;101127.72;5047367;28;20463;-52
2022/12/10 09:50:07;;;;;;;48.43;43.63;;;;;;;0.81;100.00;101121.47;5048295;28;20786;-50
2022/12/10 09:52:42;;;;;;;47.07;42.73;;;;;;;0.86;100.00;101114.09;5048306;28;20966;-50
2022/12/10 09:55:14;;;;;;;46.77;41.87;;;;;;;0.86;100.00;101112.28;5043695;28;20428;-50
2022/12/10 09:57:44;;;;;;;44.40;40.33;;;;;;;0.87;100.00;101118.34;5035565;28;20890;-51
2022/12/10 10:00:20;;;;;;;44.03;40.27;;;;;;;0.89;100.00;101113.84;5048422;28;20455;-51
2022/12/10 10:02:51;;;;;;;44.67;40.70;;;;;;;0.88;100.00;101117.41;5047818;28;20427;-48
2022/12/10 10:05:23;;;;;;;43.57;39.57;;;;;;;0.84;100.00;101123.84;5044400;28;20985;-53
2022/12/10 10:07:54;;;;;;;45.70;41.23;;;;;;;0.85;100.00;101122.91;5028208;28;20428;-50
2022/12/10 10:10:26;;;;;;;41.63;38.00;;;;;;;0.81;100.00;101118.84;5028304;28;20476;-52
2022/12/10 10:12:56;;;;;;;41.17;37.30;;;;;;;0.69;100.00;101125.13;5027990;28;20776;-49
2022/12/10 10:15:30;;;;;;;39.33;35.90;;;;;;;0.67;100.00;101140.13;5026718;28;20818;-54
2022/12/10 10:18:04;;;;;;;37.57;34.47;;;;;;;0.65;100.00;101129.78;5027988;28;20414;-51
2022/12/10 10:20:32;;;;;;;39.63;36.10;;;;;;;0.67;100.00;101130.47;5027815;28;20460;-53
2022/12/10 10:23:01;;;;;;;59.63;53.47;;;;;;;0.69;100.00;101127.75;5051097;23;20498;-48
2022/12/10 10:25:29;;;;;;;44.17;39.80;;;;;;;0.67;100.00;101127.84;5034182;28;20462;-49
2022/12/10 10:27:57;;;;;;;41.20;37.63;;;;;;;0.66;100.00;101141.94;5046702;28;20529;-46
2022/12/10 10:30:25;;;;;;;39.77;35.97;;;;;;;0.67;100.00;101124.41;5027799;28;20555;-49
2022/12/10 10:32:55;;;;;;;36.47;33.67;;;;;;;0.68;100.00;101132.16;5021075;28;20442;-49
2022/12/10 10:35:31;;;;;;;38.77;34.93;;;;;;;0.71;100.00;101128.44;5007518;28;20451;-48
2022/12/10 10:38:01;;;;;;;38.77;35.77;;;;;;;0.71;100.00;101125.81;5008031;28;20910;-48
2022/12/10 10:40:32;;;;;;;37.03;34.13;;;;;;;0.68;100.00;101129.53;4987959;28;20434;-46
2022/12/10 10:43:02;;;;;;;35.53;32.73;;;;;;;0.72;100.00;101132.75;4977590;28;20455;-46
2022/12/10 10:45:35;;;;;;;39.13;36.00;;;;;;;0.75;100.00;101120.19;4973289;28;20462;-48
2022/12/10 10:48:09;;;;;;;38.70;35.53;;;;;;;0.73;100.00;101127.38;4975173;28;20433;-45
2022/12/10 10:50:41;;;;;;;36.93;34.43;;;;;;;0.67;100.00;101135.72;4975627;28;20477;-51
2022/12/10 10:53:30;;;;;;;35.37;32.60;;;;;;;0.69;100.00;101130.38;4975416;28;20447;-46
2022/12/10 10:56:05;;;;;;;36.47;33.17;;;;;;;0.68;100.00;101133.94;5001081;28;20491;-45
2022/12/10 10:58:34;;;;;;;33.57;31.17;;;;;;;0.61;100.00;101132.75;5034389;28;20451;-49
2022/12/10 11:01:03;;;;;;;35.40;32.63;;;;;;;0.61;100.00;101130.13;5034508;28;20432;-50
2022/12/10 11:03:34;;;;;;;36.87;33.73;;;;;;;0.63;100.00;101134.31;5033855;28;20483;-50
2022/12/10 11:06:07;;;;;;;34.60;31.93;;;;;;;0.67;100.00;101133.09;5033508;28;20543;-49
2022/12/10 11:08:38;;;;;;;34.13;31.67;;;;;;;0.72;100.00;101130.13;5034130;28;20435;-46
2022/12/10 11:11:12;;;;;;;35.33;32.67;;;;;;;0.73;100.00;101129.16;5034006;28;20472;-47
2022/12/10 11:13:40;;;;;;;35.57;32.97;;;;;;;0.71;100.00;101125.81;5033677;28;20455;-51
2022/12/10 11:16:18;;;;;;;33.23;30.93;;;;;;;0.75;100.00;101127.22;5033507;28;20444;-46
2022/12/10 11:18:55;;;;;;;35.43;32.33;;;;;;;0.72;100.00;101119.63;5033680;28;20486;-45
2022/12/10 11:21:24;;;;;;;35.30;32.80;;;;;;;0.73;100.00;101126.53;5033988;28;20522;-45